MSC Heidi — 3EHC4 — position and weather

sailwx.info

Track history (hours):
 
Tides and Currents Weather Stations Pressure Air Temp Water Temp Dewpoint Dewpoint Depression Visibility Wind Speed Wind Dir Waves Ship Positions

MSC Heidi

Last reported at 2017-Dec-11 17:00 UTC. Time now 2017-Dec-13 17:00 UTC.
Position N 36°18' E 014°13'.

Length 332 m; draft 14.5 m.

Type: Ship (hazmat cat D). MMSI: 372008000.

Date/timePositionNaut miles runAvg speedWind from/ knotsBaromVisibWave heightAir tempDewpointWater temp
2017-Dec-11 17:00N 36°18' E 014°13'919.0
2017-Dec-11 16:30N 36°22' E 014°02'918.9
2017-Dec-11 16:00N 36°25' E 013°52'919.0
2017-Dec-11 15:30N 36°29' E 013°41'  
2017-Dec-09 01:25N 37°59' W 009°55'819.9
2017-Dec-09 01:00N 38°07' W 009°57'1120.0
2017-Dec-09 00:27N 38°18' W 009°60'920.0
2017-Dec-09 00:00N 38°27' W 010°03'1020.0
2017-Dec-08 23:30N 38°36' W 010°06'1019.5
2017-Dec-08 23:00N 38°46' W 010°07'1020.2
2017-Dec-08 22:30N 38°56' W 010°07'1020.7
2017-Dec-08 22:00N 39°07' W 010°07'1020.2
2017-Dec-08 21:30N 39°17' W 010°07'1219.9
2017-Dec-08 20:55N 39°28' W 010°07'66718.3
2017-Dec-07 08:23N 49°39' W 003°50'815.3
2017-Dec-07 07:50N 49°43' W 003°39'515.2
2017-Dec-07 07:30N 49°46' W 003°32'815.3
2017-Dec-07 07:00N 49°50' W 003°22'816.0
2017-Dec-07 06:30N 49°54' W 003°12'815.7
2017-Dec-07 06:00N 49°58' W 003°01'917.0
2017-Dec-07 05:30N 50°00' W 002°48'917.8
2017-Dec-07 05:01N 50°02' W 002°35'7119.5
2017-Dec-07 01:23N 49°43' W 000°49'718.1
2017-Dec-07 01:00N 49°41' W 000°40'917.8
2017-Dec-07 00:30N 49°37' W 000°27'816.6
2017-Dec-07 00:00N 49°34' W 000°15'815.2
2017-Dec-06 23:30N 49°31' W 000°04'714.6
2017-Dec-06 23:00N 49°28' E 000°06'3 5.5
2017-Dec-06 22:29N 49°27' E 000°10'0 0.0
2017-Dec-06 21:59N 49°27' E 000°10'0 0.0
2017-Dec-06 21:29N 49°27' E 000°10'0 0.0
2017-Dec-06 20:59N 49°27' E 000°10'  
2017-Dec-04 10:23N 51°58' E 001°17'0 0.0
2017-Dec-04 09:59N 51°58' E 001°17'0 0.0
2017-Dec-04 09:29N 51°58' E 001°17'0 0.0
2017-Dec-04 08:59N 51°58' E 001°17'0 0.0
2017-Dec-04 08:29N 51°58' E 001°17'0 0.0
2017-Dec-04 07:59N 51°58' E 001°17'0 0.0
2017-Dec-03 22:28N 51°58' E 001°17'0 0.6
2017-Dec-03 22:00N 51°58' E 001°18'2 3.0
2017-Dec-03 21:30N 51°56' E 001°19'4 8.8
2017-Dec-03 21:00N 51°56' E 001°26'611.4
2017-Dec-03 20:29N 51°52' E 001°34'1311.0
2017-Dec-03 19:19N 51°44' E 001°49'514.6
2017-Dec-03 19:00N 51°39' E 001°49'612.5
2017-Dec-03 18:30N 51°33' E 001°51'613.0
2017-Dec-03 18:00N 51°28' E 001°57'714.1
2017-Dec-03 17:31N 51°24' E 002°06'714.4
2017-Dec-03 17:01N 51°21' E 002°17'714.8
2017-Dec-03 16:30N 51°23' E 002°28'713.0
2017-Dec-03 16:00N 51°23' E 002°39'4 7.3
2017-Dec-03 15:31N 51°23' E 002°45'712.2
2017-Dec-03 14:58N 51°22' E 002°55'715.9
2017-Dec-03 14:30N 51°24' E 003°07'816.8
2017-Dec-03 14:00N 51°24' E 003°20'815.9
2017-Dec-03 13:30N 51°26' E 003°33'4 8.8
2017-Dec-03 13:01N 51°26' E 003°40'510.7
2017-Dec-03 12:30N 51°22' E 003°45'511.1
2017-Dec-03 12:01N 51°21' E 003°53'611.5
2017-Dec-03 11:30N 51°26' E 003°59'4 8.8
2017-Dec-03 11:00N 51°23' E 004°03'611.3
2017-Dec-03 10:30N 51°24' E 004°12'510.2
2017-Dec-03 10:00N 51°20' E 004°16'2 4.2
2017-Dec-03 09:28N 51°17' E 004°15'0 0.1
2017-Dec-03 08:58N 51°18' E 004°15'0 0.0
2017-Dec-03 08:28N 51°18' E 004°15'0 0.0
2017-Dec-03 07:58N 51°18' E 004°15'0 0.0
2017-Dec-03 07:28N 51°18' E 004°15'0 0.0
2017-Dec-03 06:58N 51°18' E 004°15'0 0.0
2017-Dec-03 06:28N 51°18' E 004°15'0 0.0
2017-Dec-03 05:58N 51°18' E 004°15'0 0.0
2017-Dec-03 05:28N 51°18' E 004°15'0 0.0
2017-Dec-03 04:58N 51°18' E 004°15'0 0.0
2017-Dec-03 04:28N 51°18' E 004°15'0 0.0
2017-Dec-03 03:58N 51°18' E 004°15'0 0.0
2017-Dec-03 03:28N 51°18' E 004°15'0 0.0
2017-Dec-03 02:58N 51°18' E 004°15'0 0.0
2017-Dec-03 02:28N 51°18' E 004°15'0 0.0
2017-Dec-03 01:58N 51°18' E 004°15'0 0.0
2017-Dec-03 01:28N 51°18' E 004°15'0 0.0
2017-Dec-03 00:58N 51°18' E 004°15'0 0.1
2017-Dec-03 00:28N 51°18' E 004°15'0 0.0
2017-Dec-02 23:58N 51°18' E 004°15'0 0.0
2017-Dec-02 23:28N 51°18' E 004°15'0 0.0
2017-Dec-02 22:58N 51°18' E 004°15'0 0.0
2017-Dec-02 22:28N 51°18' E 004°15'0 0.1
2017-Dec-02 21:58N 51°18' E 004°15'0 0.1
2017-Dec-02 21:28N 51°18' E 004°15'0 0.0
2017-Dec-02 20:58N 51°18' E 004°15'0 0.0
2017-Dec-02 20:28N 51°18' E 004°15'0 0.0
2017-Dec-02 19:58N 51°18' E 004°15'0 0.0
2017-Dec-02 19:28N 51°18' E 004°15'0 0.0
2017-Dec-02 18:58N 51°18' E 004°15'0 0.0
2017-Dec-02 18:28N 51°18' E 004°15'0 0.0
2017-Dec-02 18:01N 51°18' E 004°15'0 0.0
2017-Dec-02 17:30N 51°18' E 004°15'0 0.1
2017-Dec-02 17:00N 51°18' E 004°15'0 0.0
2017-Dec-02 16:30N 51°18' E 004°15'0 0.0
2017-Dec-02 16:00N 51°18' E 004°15'0 0.0
2017-Dec-02 15:30N 51°18' E 004°15'0 0.0
2017-Dec-02 15:00N 51°18' E 004°15'0 0.1
2017-Dec-02 14:30N 51°18' E 004°15'0 0.0
2017-Dec-02 14:00N 51°18' E 004°15'0 0.0
2017-Dec-02 13:30N 51°18' E 004°15'0 0.0
2017-Dec-02 13:00N 51°18' E 004°15'0 0.0
2017-Dec-02 12:30N 51°18' E 004°15'0 0.0
2017-Dec-02 12:00N 51°18' E 004°15'0 0.0
2017-Dec-02 11:30N 51°18' E 004°15'0 0.0
2017-Dec-02 11:00N 51°18' E 004°15'0 0.0
2017-Dec-02 10:30N 51°18' E 004°15'0 0.0
2017-Dec-02 10:00N 51°18' E 004°15'0 0.0
2017-Dec-02 09:30N 51°18' E 004°15'0 0.0
2017-Dec-02 09:00N 51°18' E 004°15'0 0.0
2017-Dec-02 08:30N 51°18' E 004°15'0 0.0
2017-Dec-02 08:00N 51°18' E 004°15'0 0.0
2017-Dec-02 07:30N 51°18' E 004°15'0 0.0
2017-Dec-02 07:00N 51°18' E 004°15'0 0.0
2017-Dec-02 06:30N 51°18' E 004°15'0 0.0
2017-Dec-02 06:00N 51°18' E 004°15'0 0.0
2017-Dec-02 05:30N 51°18' E 004°15'0 0.0
2017-Dec-02 05:00N 51°18' E 004°15'0 0.0
2017-Dec-02 04:30N 51°18' E 004°15'0 0.0
2017-Dec-02 04:00N 51°18' E 004°15'0 0.0
2017-Dec-02 03:30N 51°18' E 004°15'0 0.0
2017-Dec-02 03:00N 51°18' E 004°15'0 0.0
2017-Dec-02 02:30N 51°18' E 004°15'0 0.0
2017-Dec-02 02:00N 51°18' E 004°15'0 0.0
2017-Dec-02 01:30N 51°18' E 004°15'0 0.0
2017-Dec-02 01:00N 51°18' E 004°15'0 0.0
2017-Dec-02 00:30N 51°18' E 004°15'0 0.0
2017-Dec-02 00:00N 51°18' E 004°15'0 0.0
2017-Dec-01 23:30N 51°18' E 004°15'0 0.0
2017-Dec-01 23:00N 51°18' E 004°15'0 0.0
2017-Dec-01 22:30N 51°18' E 004°15'0 0.0
2017-Dec-01 22:00N 51°18' E 004°15'0 0.0
2017-Dec-01 21:27N 51°18' E 004°15'0 0.0
2017-Dec-01 20:57N 51°18' E 004°15'0 0.0
2017-Dec-01 20:30N 51°18' E 004°15'0 0.0
2017-Dec-01 20:00N 51°18' E 004°15'0 0.0
2017-Dec-01 19:27N 51°18' E 004°15'0 0.1
2017-Dec-01 19:00N 51°18' E 004°15'0 0.1
2017-Dec-01 18:30N 51°18' E 004°15'0 0.0
2017-Dec-01 18:00N 51°18' E 004°15'0 0.0
2017-Dec-01 17:30N 51°18' E 004°15'0 0.0
2017-Dec-01 17:00N 51°18' E 004°15'  
Track history (hours):
 
Tides and Currents Weather Stations Pressure Air Temp Water Temp Dewpoint Dewpoint Depression Visibility Wind Speed Wind Dir Waves Ship Positions

MSC Heidi

Last reported at 2017-Dec-11 17:00 UTC. Time now 2017-Dec-13 17:00 UTC.
Position N 36°18' E 014°13'.

Length 332 m; draft 14.5 m.

Type: Ship (hazmat cat D). MMSI: 372008000.

Date/timePositionNaut miles runAvg speedWind from/ knotsBaromVisibWave heightAir tempDewpointWater temp
2017-Dec-11 17:00N 36°18' E 014°13'919.0
2017-Dec-11 16:30N 36°22' E 014°02'918.9
2017-Dec-11 16:00N 36°25' E 013°52'919.0
2017-Dec-11 15:30N 36°29' E 013°41'  
2017-Dec-09 01:25N 37°59' W 009°55'819.9
2017-Dec-09 01:00N 38°07' W 009°57'1120.0
2017-Dec-09 00:27N 38°18' W 009°60'920.0
2017-Dec-09 00:00N 38°27' W 010°03'1020.0
2017-Dec-08 23:30N 38°36' W 010°06'1019.5
2017-Dec-08 23:00N 38°46' W 010°07'1020.2
2017-Dec-08 22:30N 38°56' W 010°07'1020.7
2017-Dec-08 22:00N 39°07' W 010°07'1020.2
2017-Dec-08 21:30N 39°17' W 010°07'1219.9
2017-Dec-08 20:55N 39°28' W 010°07'66718.3
2017-Dec-07 08:23N 49°39' W 003°50'815.3
2017-Dec-07 07:50N 49°43' W 003°39'515.2
2017-Dec-07 07:30N 49°46' W 003°32'815.3
2017-Dec-07 07:00N 49°50' W 003°22'816.0
2017-Dec-07 06:30N 49°54' W 003°12'815.7
2017-Dec-07 06:00N 49°58' W 003°01'917.0
2017-Dec-07 05:30N 50°00' W 002°48'917.8
2017-Dec-07 05:01N 50°02' W 002°35'7119.5
2017-Dec-07 01:23N 49°43' W 000°49'718.1
2017-Dec-07 01:00N 49°41' W 000°40'917.8
2017-Dec-07 00:30N 49°37' W 000°27'816.6
2017-Dec-07 00:00N 49°34' W 000°15'815.2
2017-Dec-06 23:30N 49°31' W 000°04'714.6
2017-Dec-06 23:00N 49°28' E 000°06'3 5.5
2017-Dec-06 22:29N 49°27' E 000°10'0 0.0
2017-Dec-06 21:59N 49°27' E 000°10'0 0.0
2017-Dec-06 21:29N 49°27' E 000°10'0 0.0
2017-Dec-06 20:59N 49°27' E 000°10'  
2017-Dec-04 10:23N 51°58' E 001°17'0 0.0
2017-Dec-04 09:59N 51°58' E 001°17'0 0.0
2017-Dec-04 09:29N 51°58' E 001°17'0 0.0
2017-Dec-04 08:59N 51°58' E 001°17'0 0.0
2017-Dec-04 08:29N 51°58' E 001°17'0 0.0
2017-Dec-04 07:59N 51°58' E 001°17'0 0.0
2017-Dec-03 22:28N 51°58' E 001°17'0 0.6
2017-Dec-03 22:00N 51°58' E 001°18'2 3.0
2017-Dec-03 21:30N 51°56' E 001°19'4 8.8
2017-Dec-03 21:00N 51°56' E 001°26'611.4
2017-Dec-03 20:29N 51°52' E 001°34'1311.0
2017-Dec-03 19:19N 51°44' E 001°49'514.6
2017-Dec-03 19:00N 51°39' E 001°49'612.5
2017-Dec-03 18:30N 51°33' E 001°51'613.0
2017-Dec-03 18:00N 51°28' E 001°57'714.1
2017-Dec-03 17:31N 51°24' E 002°06'714.4
2017-Dec-03 17:01N 51°21' E 002°17'714.8
2017-Dec-03 16:30N 51°23' E 002°28'713.0
2017-Dec-03 16:00N 51°23' E 002°39'4 7.3
2017-Dec-03 15:31N 51°23' E 002°45'712.2
2017-Dec-03 14:58N 51°22' E 002°55'715.9
2017-Dec-03 14:30N 51°24' E 003°07'816.8
2017-Dec-03 14:00N 51°24' E 003°20'815.9
2017-Dec-03 13:30N 51°26' E 003°33'4 8.8
2017-Dec-03 13:01N 51°26' E 003°40'510.7
2017-Dec-03 12:30N 51°22' E 003°45'511.1
2017-Dec-03 12:01N 51°21' E 003°53'611.5
2017-Dec-03 11:30N 51°26' E 003°59'4 8.8
2017-Dec-03 11:00N 51°23' E 004°03'611.3
2017-Dec-03 10:30N 51°24' E 004°12'510.2
2017-Dec-03 10:00N 51°20' E 004°16'2 4.2
2017-Dec-03 09:28N 51°17' E 004°15'0 0.1
2017-Dec-03 08:58N 51°18' E 004°15'0 0.0
2017-Dec-03 08:28N 51°18' E 004°15'0 0.0
2017-Dec-03 07:58N 51°18' E 004°15'0 0.0
2017-Dec-03 07:28N 51°18' E 004°15'0 0.0
2017-Dec-03 06:58N 51°18' E 004°15'0 0.0
2017-Dec-03 06:28N 51°18' E 004°15'0 0.0
2017-Dec-03 05:58N 51°18' E 004°15'0 0.0
2017-Dec-03 05:28N 51°18' E 004°15'0 0.0
2017-Dec-03 04:58N 51°18' E 004°15'0 0.0
2017-Dec-03 04:28N 51°18' E 004°15'0 0.0
2017-Dec-03 03:58N 51°18' E 004°15'0 0.0
2017-Dec-03 03:28N 51°18' E 004°15'0 0.0
2017-Dec-03 02:58N 51°18' E 004°15'0 0.0
2017-Dec-03 02:28N 51°18' E 004°15'0 0.0
2017-Dec-03 01:58N 51°18' E 004°15'0 0.0
2017-Dec-03 01:28N 51°18' E 004°15'0 0.0
2017-Dec-03 00:58N 51°18' E 004°15'0 0.1
2017-Dec-03 00:28N 51°18' E 004°15'0 0.0
2017-Dec-02 23:58N 51°18' E 004°15'0 0.0
2017-Dec-02 23:28N 51°18' E 004°15'0 0.0
2017-Dec-02 22:58N 51°18' E 004°15'0 0.0
2017-Dec-02 22:28N 51°18' E 004°15'0 0.1
2017-Dec-02 21:58N 51°18' E 004°15'0 0.1
2017-Dec-02 21:28N 51°18' E 004°15'0 0.0
2017-Dec-02 20:58N 51°18' E 004°15'0 0.0
2017-Dec-02 20:28N 51°18' E 004°15'0 0.0
2017-Dec-02 19:58N 51°18' E 004°15'0 0.0
2017-Dec-02 19:28N 51°18' E 004°15'0 0.0
2017-Dec-02 18:58N 51°18' E 004°15'0 0.0
2017-Dec-02 18:28N 51°18' E 004°15'0 0.0
2017-Dec-02 18:01N 51°18' E 004°15'0 0.0
2017-Dec-02 17:30N 51°18' E 004°15'0 0.1
2017-Dec-02 17:00N 51°18' E 004°15'0 0.0
2017-Dec-02 16:30N 51°18' E 004°15'0 0.0
2017-Dec-02 16:00N 51°18' E 004°15'0 0.0
2017-Dec-02 15:30N 51°18' E 004°15'0 0.0
2017-Dec-02 15:00N 51°18' E 004°15'0 0.1
2017-Dec-02 14:30N 51°18' E 004°15'0 0.0
2017-Dec-02 14:00N 51°18' E 004°15'0 0.0
2017-Dec-02 13:30N 51°18' E 004°15'0 0.0
2017-Dec-02 13:00N 51°18' E 004°15'0 0.0
2017-Dec-02 12:30N 51°18' E 004°15'0 0.0
2017-Dec-02 12:00N 51°18' E 004°15'0 0.0
2017-Dec-02 11:30N 51°18' E 004°15'0 0.0
2017-Dec-02 11:00N 51°18' E 004°15'0 0.0
2017-Dec-02 10:30N 51°18' E 004°15'0 0.0
2017-Dec-02 10:00N 51°18' E 004°15'0 0.0
2017-Dec-02 09:30N 51°18' E 004°15'0 0.0
2017-Dec-02 09:00N 51°18' E 004°15'0 0.0
2017-Dec-02 08:30N 51°18' E 004°15'0 0.0
2017-Dec-02 08:00N 51°18' E 004°15'0 0.0
2017-Dec-02 07:30N 51°18' E 004°15'0 0.0
2017-Dec-02 07:00N 51°18' E 004°15'0 0.0
2017-Dec-02 06:30N 51°18' E 004°15'0 0.0
2017-Dec-02 06:00N 51°18' E 004°15'0 0.0
2017-Dec-02 05:30N 51°18' E 004°15'0 0.0
2017-Dec-02 05:00N 51°18' E 004°15'0 0.0
2017-Dec-02 04:30N 51°18' E 004°15'0 0.0
2017-Dec-02 04:00N 51°18' E 004°15'0 0.0
2017-Dec-02 03:30N 51°18' E 004°15'0 0.0
2017-Dec-02 03:00N 51°18' E 004°15'0 0.0
2017-Dec-02 02:30N 51°18' E 004°15'0 0.0
2017-Dec-02 02:00N 51°18' E 004°15'0 0.0
2017-Dec-02 01:30N 51°18' E 004°15'0 0.0
2017-Dec-02 01:00N 51°18' E 004°15'0 0.0
2017-Dec-02 00:30N 51°18' E 004°15'0 0.0
2017-Dec-02 00:00N 51°18' E 004°15'0 0.0
2017-Dec-01 23:30N 51°18' E 004°15'0 0.0
2017-Dec-01 23:00N 51°18' E 004°15'0 0.0
2017-Dec-01 22:30N 51°18' E 004°15'0 0.0
2017-Dec-01 22:00N 51°18' E 004°15'0 0.0
2017-Dec-01 21:27N 51°18' E 004°15'0 0.0
2017-Dec-01 20:57N 51°18' E 004°15'0 0.0
2017-Dec-01 20:30N 51°18' E 004°15'0 0.0
2017-Dec-01 20:00N 51°18' E 004°15'0 0.0
2017-Dec-01 19:27N 51°18' E 004°15'0 0.1
2017-Dec-01 19:00N 51°18' E 004°15'0 0.1
2017-Dec-01 18:30N 51°18' E 004°15'0 0.0
2017-Dec-01 18:00N 51°18' E 004°15'0 0.0
2017-Dec-01 17:30N 51°18' E 004°15'0 0.0
2017-Dec-01 17:00N 51°18' E 004°15'  

Dump ship's entire track history